createdAt,value
2023-04-29T00:03:04.188Z,5.10
2023-04-29T00:08:26.657Z,4.53
2023-04-29T00:13:49.145Z,5.32
2023-04-29T00:19:11.637Z,5.10
2023-04-29T00:24:33.419Z,5.50
2023-04-29T00:29:56.134Z,5.45
2023-04-29T00:35:17.950Z,6.13
2023-04-29T00:40:39.816Z,5.80
2023-04-29T00:46:01.808Z,6.30
2023-04-29T00:51:24.344Z,6.38
2023-04-29T00:56:47.260Z,6.18
2023-04-29T01:02:09.201Z,6.22
2023-04-29T01:07:37.951Z,6.40
2023-04-29T01:13:13.169Z,5.90
2023-04-29T01:18:41.506Z,6.07
2023-04-29T01:24:03.657Z,5.93
2023-04-29T01:29:52.035Z,5.55
2023-04-29T01:35:54.005Z,6.05
2023-04-29T01:41:28.695Z,6.07
2023-04-29T01:46:54.567Z,6.40
2023-04-29T01:52:16.427Z,7.20
2023-04-29T01:57:38.191Z,7.13
2023-04-29T02:03:00.799Z,7.28
2023-04-29T02:08:22.665Z,6.22
2023-04-29T02:13:44.487Z,6.35
2023-04-29T02:19:06.483Z,6.00
2023-04-29T02:24:28.299Z,6.90
2023-04-29T02:29:51.959Z,6.80
2023-04-29T02:35:14.053Z,7.50
2023-04-29T02:40:41.025Z,7.18
2023-04-29T02:46:02.884Z,7.53
2023-04-29T02:51:24.899Z,6.80
2023-04-29T02:56:47.138Z,6.88
2023-04-29T03:02:09.238Z,8.02
2023-04-29T03:07:31.808Z,7.57
2023-04-29T03:12:53.582Z,7.20
2023-04-29T03:18:15.446Z,7.07
2023-04-29T03:23:39.705Z,6.85
2023-04-29T03:29:01.550Z,7.15
2023-04-29T03:34:24.810Z,7.63
2023-04-29T03:39:46.846Z,7.50
2023-04-29T03:45:09.364Z,8.60
2023-04-29T03:50:31.192Z,7.85
2023-04-29T03:55:53.004Z,7.57
2023-04-29T04:01:15.622Z,7.50
2023-04-29T04:06:37.422Z,7.20
2023-04-29T04:11:59.321Z,7.57
2023-04-29T04:17:21.184Z,6.97
2023-04-29T04:22:42.954Z,7.75
2023-04-29T04:28:05.533Z,7.30
2023-04-29T04:33:27.720Z,7.70
2023-04-29T04:38:49.517Z,7.30
2023-04-29T04:44:11.345Z,7.80
2023-04-29T04:49:33.169Z,7.43
2023-04-29T04:54:54.984Z,7.28
2023-04-29T05:00:17.372Z,6.55
2023-04-29T05:05:39.248Z,6.85
2023-04-29T05:11:01.384Z,6.38
2023-04-29T05:16:23.220Z,6.15
2023-04-29T05:21:44.996Z,6.20
2023-04-29T05:27:07.044Z,6.45
2023-04-29T05:32:28.886Z,6.15
2023-04-29T05:37:50.744Z,6.28
2023-04-29T05:43:13.083Z,5.50
2023-04-29T05:48:35.207Z,5.43
2023-04-29T05:53:57.107Z,4.65
2023-04-29T05:59:18.997Z,5.35
2023-04-29T06:04:41.944Z,4.55
2023-04-29T06:10:04.641Z,4.20
2023-04-29T06:15:26.451Z,3.60
2023-04-29T06:20:48.403Z,3.92
2023-04-29T06:26:10.229Z,3.92
2023-04-29T06:31:32.016Z,3.90
2023-04-29T06:36:53.942Z,3.53
2023-04-29T06:42:15.691Z,3.40
2023-04-29T06:47:37.583Z,2.70
2023-04-29T06:52:59.595Z,3.38
2023-04-29T06:58:21.573Z,3.13
2023-04-29T07:03:44.215Z,3.28
2023-04-29T07:09:06.268Z,2.80
2023-04-29T07:14:28.148Z,3.20
2023-04-29T07:19:50.102Z,3.42
2023-04-29T07:25:12.158Z,3.22
2023-04-29T07:30:34.154Z,4.03
2023-04-29T07:35:55.964Z,3.65
2023-04-29T07:41:17.740Z,3.20
2023-04-29T07:46:39.719Z,3.72
2023-04-29T07:52:02.602Z,2.85
2023-04-29T07:57:24.682Z,3.58
2023-04-29T08:02:46.555Z,3.25
2023-04-29T08:08:08.441Z,3.60
2023-04-29T08:13:30.302Z,4.07
2023-04-29T08:18:52.174Z,4.47
2023-04-29T08:24:14.133Z,3.40
2023-04-29T08:29:36.365Z,3.40
2023-04-29T08:34:58.181Z,3.40
2023-04-29T08:40:20.133Z,2.90
2023-04-29T08:45:43.606Z,4.85
2023-04-29T08:51:05.907Z,4.18
2023-04-29T08:56:31.209Z,3.97
2023-04-29T09:01:54.171Z,3.60
2023-04-29T09:07:17.586Z,3.33
2023-04-29T09:12:39.438Z,2.92
2023-04-29T09:18:01.391Z,2.47
2023-04-29T09:23:38.006Z,2.55
2023-04-29T09:29:11.415Z,2.38
2023-04-29T09:34:41.128Z,2.63
2023-04-29T09:40:03.048Z,3.03
2023-04-29T09:45:37.782Z,2.55
2023-04-29T09:51:04.359Z,2.60
2023-04-29T09:56:31.038Z,2.38
2023-04-29T10:01:57.460Z,2.55
2023-04-29T10:07:20.511Z,1.95
2023-04-29T10:12:44.611Z,1.88
2023-04-29T10:18:19.771Z,2.47
2023-04-29T10:23:45.355Z,2.28
2023-04-29T10:34:32.314Z,2.00
2023-04-29T10:40:04.459Z,2.13
2023-04-29T10:45:35.216Z,2.10
2023-04-29T10:50:57.483Z,2.58
2023-04-29T10:56:19.243Z,1.75
2023-04-29T11:01:47.827Z,2.55
2023-04-29T11:07:09.647Z,2.08
2023-04-29T11:12:31.538Z,1.90
2023-04-29T11:17:53.521Z,1.77
2023-04-29T11:23:18.278Z,2.00
2023-04-29T11:28:43.219Z,1.90
2023-04-29T11:34:06.027Z,2.00
2023-04-29T11:39:28.973Z,1.70
2023-04-29T11:44:57.211Z,1.70
2023-04-29T11:50:20.803Z,1.77
2023-04-29T11:55:43.988Z,2.25
2023-04-29T12:01:06.150Z,2.38
2023-04-29T12:06:30.503Z,2.53
2023-04-29T12:11:53.208Z,2.70
2023-04-29T12:17:15.234Z,2.95
2023-04-29T12:22:37.030Z,3.25
2023-04-29T12:28:05.053Z,3.10
2023-04-29T12:33:29.916Z,3.13
2023-04-29T12:38:54.809Z,2.65
2023-04-29T12:44:16.744Z,2.40
2023-04-29T12:49:38.776Z,2.65
2023-04-29T12:55:01.247Z,2.10
2023-04-29T13:00:23.357Z,3.13
2023-04-29T13:05:45.402Z,3.50
2023-04-29T13:11:07.658Z,3.20
2023-04-29T13:16:29.645Z,3.10
2023-04-29T13:21:51.791Z,3.08
2023-04-29T13:27:13.635Z,3.08
2023-04-29T13:32:43.737Z,2.90
2023-04-29T13:38:09.019Z,3.47
2023-04-29T13:43:37.772Z,2.85
2023-04-29T13:54:57.515Z,3.47
2023-04-29T14:00:25.475Z,2.80
2023-04-29T14:05:51.693Z,2.40
2023-04-29T14:11:13.633Z,2.20
2023-04-29T14:16:35.556Z,2.25
2023-04-29T14:21:57.385Z,2.50
2023-04-29T14:27:19.193Z,2.47
2023-04-29T14:32:41.162Z,2.40
2023-04-29T14:38:02.963Z,2.13
2023-04-29T14:43:24.805Z,2.17
2023-04-29T14:48:46.588Z,1.75
2023-04-29T14:54:09.829Z,2.08
2023-04-29T14:59:32.376Z,2.08
2023-04-29T15:04:55.069Z,2.25
2023-04-29T15:10:17.270Z,2.40
2023-04-29T15:15:39.136Z,1.98
2023-04-29T15:21:01.179Z,2.17
2023-04-29T15:26:23.287Z,2.20
2023-04-29T15:31:45.246Z,2.35
2023-04-29T15:37:07.112Z,2.40
2023-04-29T15:42:28.965Z,2.15
2023-04-29T15:47:51.229Z,2.20
2023-04-29T15:53:13.254Z,2.08
2023-04-29T15:58:35.165Z,1.75
2023-04-29T16:03:56.981Z,2.20
2023-04-29T16:09:18.846Z,2.20
2023-04-29T16:14:40.662Z,2.03
2023-04-29T16:20:02.493Z,1.75
2023-04-29T16:25:24.388Z,1.75
2023-04-29T16:30:46.174Z,1.80
2023-04-29T16:36:08.267Z,1.60
2023-04-29T16:41:30.773Z,1.75
2023-04-29T16:46:53.056Z,1.65
2023-04-29T16:52:15.076Z,1.90
2023-04-29T16:57:36.877Z,1.65
2023-04-29T17:02:59.679Z,1.30
2023-04-29T17:08:21.750Z,1.42
2023-04-29T17:13:45.078Z,1.50
2023-04-29T17:19:07.118Z,1.67
2023-04-29T17:24:29.885Z,1.55
2023-04-29T17:29:52.885Z,1.92
2023-04-29T17:35:14.805Z,1.38
2023-04-29T17:40:36.733Z,1.30
2023-04-29T17:45:58.770Z,1.15
2023-04-29T17:51:20.541Z,1.48
2023-04-29T17:56:42.322Z,1.23
2023-04-29T18:02:04.553Z,1.60
2023-04-29T18:07:26.331Z,1.42
2023-04-29T18:12:48.136Z,1.45
2023-04-29T18:18:10.031Z,1.70
2023-04-29T18:23:32.116Z,1.30
2023-04-29T18:28:54.791Z,1.33
2023-04-29T18:34:16.629Z,1.58
2023-04-29T18:39:38.559Z,1.48
2023-04-29T18:45:00.389Z,1.70
2023-04-29T18:50:22.219Z,1.88
2023-04-29T18:55:44.614Z,2.22
2023-04-29T19:01:06.581Z,2.10
2023-04-29T19:06:28.889Z,2.47
2023-04-29T19:11:50.797Z,2.05
2023-04-29T19:17:12.584Z,1.80
2023-04-29T19:22:34.373Z,2.42
2023-04-29T19:27:56.246Z,1.90
2023-04-29T19:33:18.052Z,1.40
2023-04-29T19:38:40.146Z,1.83
2023-04-29T19:44:02.203Z,1.48
2023-04-29T19:49:24.872Z,1.83
2023-04-29T19:54:46.622Z,1.50
2023-04-29T20:00:09.982Z,1.65
2023-04-29T20:05:31.862Z,1.17
2023-04-29T20:10:54.384Z,1.20
2023-04-29T20:16:16.496Z,1.67
2023-04-29T20:21:40.539Z,1.77
2023-04-29T20:27:04.217Z,2.92
2023-04-29T20:32:26.504Z,2.13
2023-04-29T20:37:48.432Z,2.67
2023-04-29T20:43:10.969Z,2.00
2023-04-29T20:48:33.011Z,2.20
2023-04-29T20:53:55.014Z,2.22
2023-04-29T20:59:16.840Z,1.85
2023-04-29T21:04:38.604Z,2.20
2023-04-29T21:10:00.395Z,2.20
2023-04-29T21:15:22.505Z,1.77
2023-04-29T21:20:44.588Z,1.60
2023-04-29T21:26:06.477Z,1.33
2023-04-29T21:31:29.749Z,1.55
2023-04-29T21:36:51.561Z,1.52
2023-04-29T21:42:14.101Z,1.58
2023-04-29T21:47:36.511Z,1.58
2023-04-29T21:52:58.302Z,1.50
2023-04-29T21:58:21.171Z,1.20
2023-04-29T22:03:42.952Z,1.15
2023-04-29T22:09:06.775Z,1.17
2023-04-29T22:14:28.887Z,1.08
2023-04-29T22:19:50.796Z,1.35
2023-04-29T22:25:12.624Z,0.93
2023-04-29T22:30:34.401Z,1.45
2023-04-29T22:35:56.237Z,0.98
2023-04-29T22:41:19.720Z,0.85
2023-04-29T22:46:41.529Z,1.17
2023-04-29T22:52:03.295Z,0.98
2023-04-29T22:57:25.156Z,0.80
2023-04-29T23:02:47.060Z,0.60
2023-04-29T23:08:09.046Z,0.80
2023-04-29T23:13:32.552Z,0.68
2023-04-29T23:18:54.365Z,0.63
2023-04-29T23:24:16.182Z,0.52
2023-04-29T23:29:38.097Z,0.70
2023-04-29T23:34:59.843Z,0.93
2023-04-29T23:40:21.790Z,0.60
2023-04-29T23:45:47.615Z,0.50
2023-04-29T23:51:09.690Z,0.60
2023-04-29T23:56:33.876Z,0.68
